CAQ4 weather

Springhouse Airpark
Springhouse, British Columbia, Canada

Public forecast

Using degrees Celsius for public forecast. Weather courtesy of forecast.io.

METAR (pilot weather report)

Closest report is Williams Lake Airport, 14.0 nm (26.0 km) NNE. Retrieved 2019/08/20 23:00 UTC (51 minutes ago):

CYWL 202300Z 12015G20KT 15SM BKN140 BKN220 26/04 A2986 RMK AC6CI1 SLP105 DENSITY ALT 5200FT

TAF (pilot weather forecast)

Closest forecast is Williams Lake Airport, 14.0 nm (26.0 km) NNE. Retrieved 2019/08/20 19:42 UTC (4 hours ago):

TAF CYWL 201838Z 2019/2107 12010G20KT P6SM SCT180 FM202100 12015G25KT P6SM BKN150 TEMPO 2021/2107 SCT150 BECMG 2101/2103 12010KT RMK NXT FCST BY 210100Z